• Join FlightAware (Why Join?)
  • Login
  • US Flag 
10:28PM EST


 

Airport Tracker/Info


-or-


 

Live Flight TrackerFlight Track Log ✈ UCA3597 ✈ 02-May-2014 ✈ KBGM - KIAD

Flight Track Log - Related Links

Times and Time Zones

All times are in EDT time to prevent confusion due to time zone crossing. See the UCA3597 flight status page for this flight to view local times or setup timezone preferences in your user account.

Time Position Orientation Groundspeed Altitude Reporting Facility
EDT Latitude Longitude Course Direction KTS MPH feet Rate Location/Type
07:23PM 42.1597 -76.0525 212° Southwest 133 153 5,500  Level New York Center
07:24PM 42.1253 -76.0833 214° Southwest 144 166 7,500 1,860 Climbing New York Center
07:25PM 42.0861 -76.1167 212° Southwest 159 183 9,300 1,800 Climbing New York Center
07:26PM 42.0472 -76.1497 212° Southwest 164 189 11,100 1,620 Climbing New York Center
07:27PM 41.9593 -76.2784 212° Southwest  Level FlightAware Approximate
07:27PM 42.0003 -76.1767 203° Southwest 182 209 12,600  Level New York Center
07:28PM 41.9531 -76.2061 205° Southwest 188 216 14,000 1,380 Climbing New York Center
07:29PM 41.9039 -76.2356 204° Southwest 188 216 15,500 1,020 Climbing New York Center
07:30PM 41.8567 -76.2650 205° Southwest 201 231 16,100 240 Climbing New York Center
07:31PM 41.7967 -76.2992 203° Southwest 222 255 16,000 -60 Descending New York Center
07:32PM 41.7261 -76.3378 202° Southwest 244 281 16,000  Level New York Center
07:33PM 41.6639 -76.3769 205° Southwest 244 281 16,000  Level New York Center
07:34PM 41.6061 -76.4111 204° Southwest 250 288 16,000  Level New York Center
07:35PM 41.5419 -76.4444 201° Southwest 250 288 16,000  Level New York Center
07:36PM 41.4756 -76.4831 204° Southwest 250 288 16,000  Level New York Center
07:37PM 41.4133 -76.5247 207° Southwest 245 282 16,000 -300 Level New York Center
07:38PM 41.3489 -76.5608 203° Southwest 245 282 15,500 -660 Descending New York Center
07:39PM 41.2889 -76.5944 203° Southwest 251 289 14,700 -660 Descending New York Center
07:40PM 41.2225 -76.6356 205° Southwest 258 297 14,200 -360 Descending New York Center
07:41PM 41.1558 -76.6739 203° Southwest 263 303 14,000 -120 Descending New York Center
07:42PM 41.0914 -76.7122 204° Southwest 263 303 14,000  Level New York Center
07:43PM 41.0292 -76.7481 203° Southwest 263 303 14,000  Level New York Center
07:44PM 40.9647 -76.7864 204° Southwest 258 297 14,000  Level New York Center
07:45PM 40.9003 -76.8247 204° Southwest 253 291 14,000  Level New York Center
07:46PM 40.8444 -76.8556 203° Southwest 248 285 14,000  Level New York Center
07:47PM 40.7758 -76.8931 202° Southwest 248 285 14,000  Level New York Center
07:48PM 40.7061 -76.9117 191° South 248 285 14,000  Level New York Center
07:49PM 40.6406 -76.9331 194° South 248 285 14,000  Level New York Center
07:50PM 40.5706 -76.9542 193° South 248 285 14,000  Level New York Center
07:51PM 40.5050 -76.9728 192° South 248 285 14,000 -420 Level New York Center
07:52PM 40.4369 -76.9967 195° South 248 285 13,200 -900 Descending New York Center
07:53PM 40.3650 -77.0175 192° South 254 292 12,300 -1,020 Descending New York Center
07:54PM 40.2972 -77.0386 193° South 259 298 11,200 -1,020 Descending New York Center
07:55PM 40.2272 -77.0594 193° South 264 304 10,300 -840 Descending New York Center
07:56PM 40.1167 -77.1000 196° South 241 277 9,000 -480 Descending Potomac TRACON
07:57PM 40.0500 -77.1167 191° South 222 255 9,000  Level Potomac TRACON
07:58PM 40.0000 -77.1333 194° South 221 254 9,000  Level Potomac TRACON
07:59PM 39.9333 -77.1500 191° South 218 251 9,000  Level Potomac TRACON
08:00PM 39.8833 -77.1667 194° South 216 249 9,000  Level Potomac TRACON
08:01PM 39.8167 -77.1833 191° South 223 257 9,000  Level Potomac TRACON
08:02PM 39.7500 -77.2000 191° South 222 255 9,000  Level Potomac TRACON
08:03PM 39.6833 -77.2167 191° South 222 255 9,000 -120 Level Potomac TRACON
08:04PM 39.6500 -77.2833 237° Southwest 211 243 8,800 -600 Descending Potomac TRACON
08:05PM 39.6167 -77.3333 229° Southwest 204 235 7,900 -600 Descending Potomac TRACON
08:06PM 39.5667 -77.3500 194° South 220 253 7,700 -300 Descending Potomac TRACON
08:07PM 39.5000 -77.3500 180° South 230 265 7,300 -360 Descending Potomac TRACON
08:08PM 39.4333 -77.3667 191° South 239 275 7,000 -480 Descending Potomac TRACON
08:09PM 39.3667 -77.3667 180° South 246 283 6,400 -900 Descending Potomac TRACON
08:10PM 39.3000 -77.3667 180° South 258 297 5,300 -1,020 Descending Potomac TRACON
08:11PM 39.2167 -77.3667 180° South 262 302 4,400 -660 Descending Potomac TRACON
08:12PM 39.1500 -77.3500 169° South 256 295 4,000 -240 Descending Potomac TRACON
08:13PM 39.0833 -77.3500 180° South 248 285 4,000  Level Potomac TRACON
08:14PM 39.0167 -77.3500 180° South 249 287 4,000 -120 Level Potomac TRACON
08:15PM 38.9333 -77.3500 180° South 255 293 3,800 -480 Descending Potomac TRACON
08:16PM 38.8667 -77.3500 180° South 265 305 3,100 -600 Descending Potomac TRACON
08:17PM 38.8000 -77.3833 201° Southwest 256 295 2,700 -600 Descending Potomac TRACON
08:18PM 38.8333 -77.4333 311° West 214 246 2,000 -840 Descending Potomac TRACON
08:19PM 38.8833 -77.4333 360° North 133 153 1,100 -780 Descending Potomac TRACON
08:20PM 38.9167 -77.4333 360° North 108 124 600 -600 Descending Potomac TRACON
08:22PM 38.9333 -77.4500 349° North  Level FlightAware Approximate
08:29PM 38.9474 -77.4599 349° North  Level Estimated
08:30PM 38.9474 -77.4599 151° Southeast  Level Estimated